createdAt,value
2017-06-27T00:00:02.107Z,19.91
2017-06-27T00:00:06.413Z,19.91
2017-06-27T00:00:10.849Z,19.9
2017-06-27T00:00:15.279Z,19.91
2017-06-27T00:00:19.473Z,19.89
2017-06-27T00:00:23.657Z,19.9
2017-06-27T00:00:27.959Z,19.89
2017-06-27T00:00:32.302Z,19.9
2017-06-27T00:00:36.721Z,19.9
2017-06-27T00:00:41.145Z,19.89
2017-06-27T00:00:45.573Z,19.89
2017-06-27T00:00:49.884Z,19.89
2017-06-27T00:00:54.356Z,19.89
2017-06-27T00:00:58.776Z,19.89
2017-06-27T00:01:03.078Z,19.88
2017-06-27T00:01:07.496Z,19.88
2017-06-27T00:01:11.925Z,19.88
2017-06-27T00:01:16.350Z,19.88
2017-06-27T00:01:20.778Z,19.87
2017-06-27T00:01:25.200Z,19.87
2017-06-27T00:01:29.510Z,19.87
2017-06-27T00:01:33.938Z,19.87
2017-06-27T00:01:38.362Z,19.87
2017-06-27T00:01:42.785Z,19.86
2017-06-27T00:01:47.205Z,19.87
2017-06-27T00:01:51.632Z,19.86
2017-06-27T00:01:55.973Z,19.86
2017-06-27T00:02:00.393Z,19.87
2017-06-27T00:02:04.747Z,19.86
2017-06-27T00:02:09.058Z,19.86
2017-06-27T00:02:13.486Z,19.85
2017-06-27T00:02:17.799Z,19.85
2017-06-27T00:02:22.109Z,19.85
2017-06-27T00:02:26.530Z,19.85
2017-06-27T00:02:30.952Z,19.85
2017-06-27T00:02:35.263Z,19.84
2017-06-27T00:02:39.575Z,19.84
2017-06-27T00:02:43.997Z,19.84
2017-06-27T00:02:48.303Z,19.82
2017-06-27T00:02:52.607Z,19.83
2017-06-27T00:02:57.026Z,19.83
2017-06-27T00:03:01.449Z,19.82
2017-06-27T00:03:05.800Z,19.82
2017-06-27T00:03:10.220Z,19.82
2017-06-27T00:03:14.639Z,19.82
2017-06-27T00:03:18.951Z,19.8
2017-06-27T00:03:23.371Z,19.81
2017-06-27T00:03:27.670Z,19.8
2017-06-27T00:03:32.093Z,19.8
2017-06-27T00:03:36.512Z,19.8
2017-06-27T00:03:40.821Z,19.79
2017-06-27T00:03:45.250Z,19.79
2017-06-27T00:03:49.669Z,19.79
2017-06-27T00:03:53.996Z,19.78
2017-06-27T00:03:58.419Z,19.78
2017-06-27T00:04:02.845Z,19.79
2017-06-27T00:04:06.716Z,19.79
2017-06-27T00:04:11.133Z,19.78
2017-06-27T00:04:15.550Z,19.78
2017-06-27T00:04:19.973Z,19.78
2017-06-27T00:04:24.277Z,19.77
2017-06-27T00:04:28.700Z,19.76
2017-06-27T00:04:33.005Z,19.77
2017-06-27T00:04:37.423Z,19.76
2017-06-27T00:04:41.494Z,19.76
2017-06-27T00:04:45.921Z,19.76
2017-06-27T00:04:50.347Z,19.76
2017-06-27T00:04:54.657Z,19.75
2017-06-27T00:04:59.078Z,19.75
2017-06-27T00:05:03.635Z,19.74
2017-06-27T00:05:08.069Z,19.75
2017-06-27T00:05:12.492Z,19.74
2017-06-27T00:05:16.913Z,19.74
2017-06-27T00:05:21.334Z,19.74
2017-06-27T00:05:25.760Z,19.75
2017-06-27T00:05:30.195Z,19.74
2017-06-27T00:05:34.620Z,19.73
2017-06-27T00:05:39.041Z,19.74
2017-06-27T00:05:43.345Z,19.74
2017-06-27T00:05:47.770Z,19.73
2017-06-27T00:05:51.963Z,19.72
2017-06-27T00:05:56.157Z,19.73
2017-06-27T00:06:00.462Z,19.73
2017-06-27T00:06:04.650Z,19.73
2017-06-27T00:06:09.072Z,19.72
2017-06-27T00:06:13.501Z,19.72
2017-06-27T00:06:17.938Z,19.72
2017-06-27T00:06:22.361Z,19.72
2017-06-27T00:06:26.782Z,19.71
2017-06-27T00:06:31.210Z,19.7
2017-06-27T00:06:35.684Z,19.7
2017-06-27T00:06:39.869Z,19.7
2017-06-27T00:06:44.174Z,19.71
2017-06-27T00:06:48.595Z,19.7
2017-06-27T00:06:52.917Z,19.69
2017-06-27T00:06:57.002Z,19.69
2017-06-27T00:07:01.430Z,19.69
2017-06-27T00:07:05.735Z,19.68
2017-06-27T00:07:10.039Z,19.69
2017-06-27T00:07:14.464Z,19.67
2017-06-27T00:07:18.904Z,19.68
2017-06-27T00:07:23.323Z,19.68
2017-06-27T00:07:27.624Z,19.68
2017-06-27T00:07:32.049Z,19.67
2017-06-27T00:07:36.356Z,19.67
2017-06-27T00:07:40.666Z,19.66
2017-06-27T00:07:45.084Z,19.66
2017-06-27T00:07:49.503Z,19.65
2017-06-27T00:07:53.805Z,19.64
2017-06-27T00:07:57.871Z,19.65
2017-06-27T00:08:02.299Z,19.64
2017-06-27T00:08:06.735Z,19.65
2017-06-27T00:08:11.158Z,19.64
2017-06-27T00:08:15.575Z,19.64
2017-06-27T00:08:19.892Z,19.63
2017-06-27T00:08:24.318Z,19.63
2017-06-27T00:08:28.733Z,19.62
2017-06-27T00:08:33.154Z,19.61
2017-06-27T00:08:37.572Z,19.62
2017-06-27T00:08:41.996Z,19.62
2017-06-27T00:08:46.303Z,19.61
2017-06-27T00:08:50.721Z,19.61
2017-06-27T00:08:55.024Z,19.62
2017-06-27T00:08:59.206Z,19.61
2017-06-27T00:09:03.820Z,19.6
2017-06-27T00:09:08.253Z,19.6
2017-06-27T00:09:12.669Z,19.59
2017-06-27T00:09:16.971Z,19.6
2017-06-27T00:09:21.394Z,19.59
2017-06-27T00:09:25.826Z,19.58
2017-06-27T00:09:30.152Z,19.59
2017-06-27T00:09:34.574Z,19.59
2017-06-27T00:09:39.128Z,19.58
2017-06-27T00:09:43.553Z,19.58
2017-06-27T00:09:47.979Z,19.57
2017-06-27T00:09:52.163Z,19.57
2017-06-27T00:09:56.579Z,19.57
2017-06-27T00:10:01.002Z,19.56
2017-06-27T00:10:05.187Z,19.56
2017-06-27T00:10:09.619Z,19.57
2017-06-27T00:10:14.039Z,19.56
2017-06-27T00:10:18.461Z,19.56
2017-06-27T00:10:22.883Z,19.55
2017-06-27T00:10:27.191Z,19.55
2017-06-27T00:10:31.653Z,19.56
2017-06-27T00:10:36.071Z,19.55
2017-06-27T00:10:40.488Z,19.54
2017-06-27T00:10:44.912Z,19.54
2017-06-27T00:10:49.332Z,19.53
2017-06-27T00:10:53.170Z,19.53
2017-06-27T00:10:57.601Z,19.52
2017-06-27T00:11:02.023Z,19.52
2017-06-27T00:11:06.325Z,19.52
2017-06-27T00:11:10.752Z,19.52
2017-06-27T00:11:15.069Z,19.51
2017-06-27T00:11:19.489Z,19.51
2017-06-27T00:11:23.913Z,19.51
2017-06-27T00:11:28.332Z,19.5
2017-06-27T00:11:32.761Z,19.49
2017-06-27T00:11:37.216Z,19.48
2017-06-27T00:11:41.515Z,19.49
2017-06-27T00:11:45.932Z,19.47
2017-06-27T00:11:50.238Z,19.46
2017-06-27T00:11:54.665Z,19.47
2017-06-27T00:11:59.085Z,19.47
2017-06-27T00:12:03.803Z,19.45
2017-06-27T00:12:08.104Z,19.45
2017-06-27T00:12:12.529Z,19.44
2017-06-27T00:12:16.719Z,19.44
2017-06-27T00:12:21.168Z,19.43
2017-06-27T00:12:25.589Z,19.42
2017-06-27T00:12:29.892Z,19.42
2017-06-27T00:12:34.315Z,19.42
2017-06-27T00:12:38.737Z,19.41
2017-06-27T00:12:43.052Z,19.4
2017-06-27T00:12:47.472Z,19.4
2017-06-27T00:12:51.910Z,19.41
2017-06-27T00:12:56.327Z,19.4
2017-06-27T00:13:00.635Z,19.39
2017-06-27T00:13:05.185Z,19.39
2017-06-27T00:13:09.603Z,19.37
2017-06-27T00:13:14.020Z,19.36
2017-06-27T00:13:18.440Z,19.36
2017-06-27T00:13:22.862Z,19.35
2017-06-27T00:13:27.167Z,19.36
2017-06-27T00:13:31.474Z,19.36
2017-06-27T00:13:35.891Z,19.35
2017-06-27T00:13:40.195Z,19.35
2017-06-27T00:13:44.622Z,19.34
2017-06-27T00:13:49.043Z,19.33
2017-06-27T00:13:53.234Z,19.33
2017-06-27T00:13:57.658Z,19.31
2017-06-27T00:14:02.079Z,19.3
2017-06-27T00:14:06.273Z,19.3
2017-06-27T00:14:10.696Z,19.28
2017-06-27T00:14:15.119Z,19.29
2017-06-27T00:14:19.543Z,19.28
2017-06-27T00:14:23.962Z,19.28
2017-06-27T00:14:28.384Z,19.27
2017-06-27T00:14:32.805Z,19.26
2017-06-27T00:14:37.224Z,19.25
2017-06-27T00:14:41.532Z,19.25
2017-06-27T00:14:45.954Z,19.25
2017-06-27T00:14:50.145Z,19.25
2017-06-27T00:14:54.562Z,19.24
2017-06-27T00:14:58.981Z,19.23
2017-06-27T00:15:03.557Z,19.22
2017-06-27T00:15:07.861Z,19.22
2017-06-27T00:15:12.179Z,19.2
2017-06-27T00:15:16.602Z,19.21
2017-06-27T00:15:21.023Z,19.2
2017-06-27T00:15:25.443Z,19.19
2017-06-27T00:15:29.866Z,19.18
2017-06-27T00:15:34.291Z,19.18
2017-06-27T00:15:38.724Z,19.17
2017-06-27T00:15:43.143Z,19.17
2017-06-27T00:15:47.331Z,19.16
2017-06-27T00:15:51.779Z,19.15
2017-06-27T00:15:56.237Z,19.14
2017-06-27T00:16:00.659Z,19.13
2017-06-27T00:16:04.968Z,19.13
2017-06-27T00:16:09.273Z,19.13
2017-06-27T00:16:13.698Z,19.12
2017-06-27T00:16:18.008Z,19.11
2017-06-27T00:16:22.317Z,19.11
2017-06-27T00:16:26.744Z,19.1
2017-06-27T00:16:31.169Z,19.1
2017-06-27T00:16:35.359Z,19.1
2017-06-27T00:16:39.783Z,19.08
2017-06-27T00:16:44.093Z,19.08
2017-06-27T00:16:48.514Z,19.08
2017-06-27T00:16:52.818Z,19.07
2017-06-27T00:16:57.245Z,19.06
2017-06-27T00:17:01.669Z,19.05
2017-06-27T00:17:06.097Z,19.05
2017-06-27T00:17:10.402Z,19.05
2017-06-27T00:17:14.710Z,19.04
2017-06-27T00:17:19.016Z,19.03
2017-06-27T00:17:23.324Z,19.01
2017-06-27T00:17:27.744Z,19.01
2017-06-27T00:17:32.175Z,19
2017-06-27T00:17:36.480Z,19
2017-06-27T00:17:40.782Z,18.99
2017-06-27T00:17:45.095Z,18.99
2017-06-27T00:17:49.512Z,18.99
2017-06-27T00:17:53.934Z,18.98
2017-06-27T00:17:58.352Z,18.97
2017-06-27T00:18:03.077Z,18.96
2017-06-27T00:18:07.506Z,18.95
2017-06-27T00:18:11.811Z,18.95
2017-06-27T00:18:16.230Z,18.94
2017-06-27T00:18:20.533Z,18.93
2017-06-27T00:18:24.958Z,18.93
2017-06-27T00:18:29.272Z,18.9
2017-06-27T00:18:33.690Z,18.9
2017-06-27T00:18:38.111Z,18.9
2017-06-27T00:18:42.296Z,18.89
2017-06-27T00:18:46.728Z,18.88
2017-06-27T00:18:51.202Z,18.87
2017-06-27T00:18:55.622Z,18.87
2017-06-27T00:18:59.930Z,18.86
2017-06-27T00:19:04.119Z,18.86
2017-06-27T00:19:08.430Z,18.84
2017-06-27T00:19:12.763Z,18.84
2017-06-27T00:19:17.183Z,18.84
2017-06-27T00:19:21.602Z,18.83
2017-06-27T00:19:26.023Z,18.83
2017-06-27T00:19:30.446Z,18.81
2017-06-27T00:19:34.876Z,18.81
2017-06-27T00:19:39.178Z,18.8
2017-06-27T00:19:43.365Z,18.79
2017-06-27T00:19:47.664Z,18.79
2017-06-27T00:19:52.086Z,18.78
2017-06-27T00:19:56.419Z,18.78
2017-06-27T00:20:00.838Z,18.77
2017-06-27T00:20:05.358Z,18.77
2017-06-27T00:20:09.550Z,18.76
2017-06-27T00:20:13.972Z,18.75
2017-06-27T00:20:18.430Z,18.75
2017-06-27T00:20:22.612Z,18.74
2017-06-27T00:20:26.912Z,18.73
2017-06-27T00:20:31.222Z,18.72
2017-06-27T00:20:35.528Z,18.72
2017-06-27T00:20:39.608Z,18.72
2017-06-27T00:20:43.915Z,18.7
2017-06-27T00:20:48.219Z,18.71
2017-06-27T00:20:52.657Z,18.7
2017-06-27T00:20:57.086Z,18.7
2017-06-27T00:21:01.548Z,18.68
2017-06-27T00:21:05.953Z,18.68
2017-06-27T00:21:10.375Z,18.67
2017-06-27T00:21:14.797Z,18.67
2017-06-27T00:21:19.221Z,18.66
2017-06-27T00:21:23.559Z,18.66
2017-06-27T00:21:27.747Z,18.65
2017-06-27T00:21:32.173Z,18.65
2017-06-27T00:21:36.593Z,18.64
2017-06-27T00:21:40.900Z,18.63
2017-06-27T00:21:45.352Z,18.62
2017-06-27T00:21:49.773Z,18.62
2017-06-27T00:21:54.100Z,18.62
2017-06-27T00:21:58.521Z,18.6
2017-06-27T00:22:02.947Z,18.6
2017-06-27T00:22:07.261Z,18.61
2017-06-27T00:22:11.687Z,18.6
2017-06-27T00:22:15.871Z,18.6
2017-06-27T00:22:20.299Z,18.59
2017-06-27T00:22:24.733Z,18.59
2017-06-27T00:22:29.165Z,18.58
2017-06-27T00:22:33.598Z,18.58
2017-06-27T00:22:37.903Z,18.57
2017-06-27T00:22:42.324Z,18.57
2017-06-27T00:22:46.745Z,18.57
2017-06-27T00:22:51.055Z,18.56
2017-06-27T00:22:55.246Z,18.56
2017-06-27T00:22:59.676Z,18.56
2017-06-27T00:23:03.868Z,18.55
2017-06-27T00:23:08.298Z,18.55
2017-06-27T00:23:12.731Z,18.54
2017-06-27T00:23:17.163Z,18.54
2017-06-27T00:23:21.469Z,18.54
2017-06-27T00:23:25.895Z,18.53
2017-06-27T00:23:30.321Z,18.52
2017-06-27T00:23:34.748Z,18.53
2017-06-27T00:23:39.051Z,18.52
2017-06-27T00:23:43.355Z,18.52
2017-06-27T00:23:47.661Z,18.52
2017-06-27T00:23:51.861Z,18.52
2017-06-27T00:23:56.164Z,18.51
2017-06-27T00:24:00.585Z,18.51
2017-06-27T00:24:04.887Z,18.51
2017-06-27T00:24:09.195Z,18.51
2017-06-27T00:24:13.645Z,18.5
2017-06-27T00:24:18.072Z,18.5
2017-06-27T00:24:22.493Z,18.5
2017-06-27T00:24:26.909Z,18.49
2017-06-27T00:24:31.211Z,18.49
2017-06-27T00:24:35.641Z,18.49
2017-06-27T00:24:40.129Z,18.49
2017-06-27T00:24:44.429Z,18.49
2017-06-27T00:24:48.732Z,18.48
2017-06-27T00:24:53.155Z,18.47
2017-06-27T00:24:57.583Z,18.47
2017-06-27T00:25:02.209Z,18.48
2017-06-27T00:25:06.519Z,18.47
2017-06-27T00:25:10.941Z,18.47
2017-06-27T00:25:15.360Z,18.46
2017-06-27T00:25:19.790Z,18.46
2017-06-27T00:25:24.212Z,18.46
2017-06-27T00:25:28.515Z,18.45
2017-06-27T00:25:32.934Z,18.46
2017-06-27T00:25:37.239Z,18.45
2017-06-27T00:25:41.575Z,18.45
2017-06-27T00:25:46.001Z,18.45
2017-06-27T00:25:50.304Z,18.45
2017-06-27T00:25:54.609Z,18.45
2017-06-27T00:25:59.026Z,18.45
2017-06-27T00:26:03.223Z,18.45
2017-06-27T00:26:07.646Z,18.45
2017-06-27T00:26:12.072Z,18.44
2017-06-27T00:26:16.495Z,18.44
2017-06-27T00:26:20.807Z,18.44
2017-06-27T00:26:25.118Z,18.44
2017-06-27T00:26:29.429Z,18.43
2017-06-27T00:26:33.738Z,18.43
2017-06-27T00:26:38.157Z,18.44
2017-06-27T00:26:42.580Z,18.42
2017-06-27T00:26:47.034Z,18.43
2017-06-27T00:26:51.339Z,18.43
2017-06-27T00:26:55.761Z,18.43
2017-06-27T00:27:00.068Z,18.42
2017-06-27T00:27:04.493Z,18.42
2017-06-27T00:27:08.803Z,18.42
2017-06-27T00:27:13.224Z,18.42
2017-06-27T00:27:17.534Z,18.42
2017-06-27T00:27:21.959Z,18.41
2017-06-27T00:27:26.382Z,18.41
2017-06-27T00:27:30.810Z,18.42
2017-06-27T00:27:35.116Z,18.41
2017-06-27T00:27:39.418Z,18.41
2017-06-27T00:27:43.721Z,18.42
2017-06-27T00:27:48.029Z,18.41
2017-06-27T00:27:52.451Z,18.41
2017-06-27T00:27:56.756Z,18.4
2017-06-27T00:28:01.174Z,18.4
2017-06-27T00:28:05.358Z,18.4
2017-06-27T00:28:09.662Z,18.39
2017-06-27T00:28:14.125Z,18.39
2017-06-27T00:28:18.550Z,18.39
2017-06-27T00:28:22.854Z,18.37
2017-06-27T00:28:27.153Z,18.37
2017-06-27T00:28:31.488Z,18.38
2017-06-27T00:28:35.912Z,18.37
2017-06-27T00:28:40.093Z,18.37
2017-06-27T00:28:44.509Z,18.36
2017-06-27T00:28:48.931Z,18.36
2017-06-27T00:28:53.369Z,18.36
2017-06-27T00:28:57.708Z,18.36
2017-06-27T00:29:02.135Z,18.34
2017-06-27T00:29:06.553Z,18.34
2017-06-27T00:29:10.973Z,18.33
2017-06-27T00:29:15.399Z,18.33
2017-06-27T00:29:19.836Z,18.33
2017-06-27T00:29:24.136Z,18.33
2017-06-27T00:29:28.559Z,18.32
2017-06-27T00:29:32.975Z,18.32
2017-06-27T00:29:37.280Z,18.32
2017-06-27T00:29:41.590Z,18.31
2017-06-27T00:29:46.009Z,18.31
2017-06-27T00:29:50.431Z,18.31
2017-06-27T00:29:54.732Z,18.3
2017-06-27T00:29:59.162Z,18.29
2017-06-27T00:30:03.879Z,18.29
2017-06-27T00:30:08.301Z,18.28
2017-06-27T00:30:12.733Z,18.28
2017-06-27T00:30:17.150Z,18.28
2017-06-27T00:30:21.576Z,18.27
2017-06-27T00:30:26.000Z,18.26
2017-06-27T00:30:30.066Z,18.26
2017-06-27T00:30:34.370Z,18.26
2017-06-27T00:30:38.558Z,18.25
2017-06-27T00:30:42.764Z,18.25
2017-06-27T00:30:47.184Z,18.25
2017-06-27T00:30:51.603Z,18.24
2017-06-27T00:30:56.026Z,18.24
2017-06-27T00:31:00.446Z,18.23
2017-06-27T00:31:05.179Z,18.22
2017-06-27T00:31:09.606Z,18.22
2017-06-27T00:31:14.029Z,18.22
2017-06-27T00:31:18.448Z,18.22
2017-06-27T00:31:22.755Z,18.21
2017-06-27T00:31:27.069Z,18.2
2017-06-27T00:31:31.488Z,18.2
2017-06-27T00:31:35.912Z,18.19
2017-06-27T00:31:40.330Z,18.19
2017-06-27T00:31:44.631Z,18.18
2017-06-27T00:31:49.067Z,18.18
2017-06-27T00:31:53.507Z,18.18
2017-06-27T00:31:57.695Z,18.17
2017-06-27T00:32:02.120Z,18.15
2017-06-27T00:32:06.307Z,18.16
2017-06-27T00:32:10.775Z,18.15
2017-06-27T00:32:15.200Z,18.15
2017-06-27T00:32:19.513Z,18.14
2017-06-27T00:32:23.817Z,18.14
2017-06-27T00:32:28.246Z,18.14
2017-06-27T00:32:32.705Z,18.13
2017-06-27T00:32:37.010Z,18.13
2017-06-27T00:32:41.428Z,18.12
2017-06-27T00:32:45.847Z,18.11
2017-06-27T00:32:50.159Z,18.1
2017-06-27T00:32:54.584Z,18.1
2017-06-27T00:32:59.006Z,18.1
2017-06-27T00:33:03.679Z,18.09
2017-06-27T00:33:08.106Z,18.09
2017-06-27T00:33:12.308Z,18.07
2017-06-27T00:33:16.614Z,18.08
2017-06-27T00:33:21.036Z,18.08
2017-06-27T00:33:25.459Z,18.07
2017-06-27T00:33:29.769Z,18.07
2017-06-27T00:33:34.228Z,18.07
2017-06-27T00:33:38.661Z,18.07
2017-06-27T00:33:43.083Z,18.06
2017-06-27T00:33:47.504Z,18.06
2017-06-27T00:33:51.936Z,18.06
2017-06-27T00:33:56.246Z,18.05
2017-06-27T00:34:00.551Z,18.05
2017-06-27T00:34:04.622Z,18.04
2017-06-27T00:34:08.811Z,18.04
2017-06-27T00:34:13.227Z,18.03
2017-06-27T00:34:17.652Z,18.03
2017-06-27T00:34:22.083Z,18.02
2017-06-27T00:34:26.388Z,18.01
2017-06-27T00:34:30.811Z,18.01
2017-06-27T00:34:35.237Z,17.99
2017-06-27T00:34:39.662Z,17.99
2017-06-27T00:34:44.094Z,17.98
2017-06-27T00:34:48.512Z,17.97
2017-06-27T00:34:52.702Z,17.97
2017-06-27T00:34:57.009Z,17.96
2017-06-27T00:35:01.323Z,17.96
2017-06-27T00:35:05.666Z,17.96
2017-06-27T00:35:10.090Z,17.95
2017-06-27T00:35:14.517Z,17.94
2017-06-27T00:35:18.825Z,17.95
2017-06-27T00:35:23.256Z,17.95
2017-06-27T00:35:27.326Z,17.94
2017-06-27T00:35:31.628Z,17.94
2017-06-27T00:35:36.054Z,17.92
2017-06-27T00:35:40.355Z,17.93
2017-06-27T00:35:44.667Z,17.92
2017-06-27T00:35:49.087Z,17.92
2017-06-27T00:35:53.508Z,17.92
2017-06-27T00:35:57.929Z,17.92
2017-06-27T00:36:02.121Z,17.91
2017-06-27T00:36:06.432Z,17.91
2017-06-27T00:36:10.862Z,17.9
2017-06-27T00:36:15.286Z,17.9
2017-06-27T00:36:19.706Z,17.9
2017-06-27T00:36:24.133Z,17.89
2017-06-27T00:36:28.560Z,17.89
2017-06-27T00:36:32.990Z,17.89
2017-06-27T00:36:37.409Z,17.89
2017-06-27T00:36:41.595Z,17.89
2017-06-27T00:36:46.018Z,17.88
2017-06-27T00:36:50.333Z,17.89
2017-06-27T00:36:54.287Z,17.88
2017-06-27T00:36:58.711Z,17.88
2017-06-27T00:37:03.315Z,17.88
2017-06-27T00:37:07.622Z,17.87
2017-06-27T00:37:12.053Z,17.87
2017-06-27T00:37:16.359Z,17.88
2017-06-27T00:37:20.781Z,17.87
2017-06-27T00:37:25.203Z,17.86
2017-06-27T00:37:29.623Z,17.86
2017-06-27T00:37:34.045Z,17.86
2017-06-27T00:37:38.351Z,17.87
2017-06-27T00:37:42.776Z,17.86
2017-06-27T00:37:47.195Z,17.86
2017-06-27T00:37:51.632Z,17.86
2017-06-27T00:37:55.944Z,17.86
2017-06-27T00:38:00.248Z,17.85
2017-06-27T00:38:04.670Z,17.84
2017-06-27T00:38:09.092Z,17.85
2017-06-27T00:38:13.515Z,17.84
2017-06-27T00:38:17.937Z,17.85
2017-06-27T00:38:22.391Z,17.84
2017-06-27T00:38:26.576Z,17.84
2017-06-27T00:38:30.993Z,17.85
2017-06-27T00:38:35.412Z,17.84
2017-06-27T00:38:39.833Z,17.84
2017-06-27T00:38:44.167Z,17.83
2017-06-27T00:38:48.467Z,17.84
2017-06-27T00:38:52.890Z,17.84
2017-06-27T00:38:57.310Z,17.84
2017-06-27T00:39:01.738Z,17.83
2017-06-27T00:39:06.202Z,17.83
2017-06-27T00:39:10.627Z,17.83
2017-06-27T00:39:15.044Z,17.83
2017-06-27T00:39:19.461Z,17.82
2017-06-27T00:39:23.884Z,17.83
2017-06-27T00:39:28.072Z,17.82
2017-06-27T00:39:32.370Z,17.81
2017-06-27T00:39:36.792Z,17.82
2017-06-27T00:39:41.105Z,17.82
2017-06-27T00:39:45.783Z,17.82
2017-06-27T00:39:50.086Z,17.82
2017-06-27T00:39:54.510Z,17.82
2017-06-27T00:39:58.930Z,17.82
2017-06-27T00:40:03.346Z,17.82
2017-06-27T00:40:07.657Z,17.81
2017-06-27T00:40:12.084Z,17.81
2017-06-27T00:40:16.502Z,17.81
2017-06-27T00:40:20.926Z,17.82
2017-06-27T00:40:25.346Z,17.81
2017-06-27T00:40:29.786Z,17.81
2017-06-27T00:40:34.093Z,17.81
2017-06-27T00:40:38.395Z,17.82
2017-06-27T00:40:42.696Z,17.81
2017-06-27T00:40:47.010Z,17.82
2017-06-27T00:40:51.318Z,17.82
2017-06-27T00:40:55.740Z,17.81
2017-06-27T00:41:00.168Z,17.81
2017-06-27T00:41:04.736Z,17.81
2017-06-27T00:41:09.039Z,17.81
2017-06-27T00:41:13.466Z,17.81
2017-06-27T00:41:17.889Z,17.81
2017-06-27T00:41:22.308Z,17.81
2017-06-27T00:41:26.611Z,17.81
2017-06-27T00:41:31.040Z,17.81
2017-06-27T00:41:35.473Z,17.8
2017-06-27T00:41:39.662Z,17.81
2017-06-27T00:41:43.847Z,17.81
2017-06-27T00:41:48.149Z,17.81
2017-06-27T00:41:52.578Z,17.81
2017-06-27T00:41:57.039Z,17.81
2017-06-27T00:42:01.341Z,17.81
2017-06-27T00:42:05.898Z,17.81
2017-06-27T00:42:10.204Z,17.81
2017-06-27T00:42:14.632Z,17.81
2017-06-27T00:42:19.058Z,17.81
2017-06-27T00:42:23.481Z,17.8
2017-06-27T00:42:27.904Z,17.81
2017-06-27T00:42:32.211Z,17.81
2017-06-27T00:42:36.635Z,17.8
2017-06-27T00:42:40.823Z,17.81
2017-06-27T00:42:45.248Z,17.81
2017-06-27T00:42:49.664Z,17.8
2017-06-27T00:42:54.083Z,17.81
2017-06-27T00:42:58.542Z,17.79
2017-06-27T00:43:02.973Z,17.8
2017-06-27T00:43:07.165Z,17.81
2017-06-27T00:43:11.349Z,17.8
2017-06-27T00:43:15.776Z,17.79
2017-06-27T00:43:20.203Z,17.79
2017-06-27T00:43:24.623Z,17.79
2017-06-27T00:43:28.926Z,17.79
2017-06-27T00:43:33.347Z,17.79
2017-06-27T00:43:37.770Z,17.79
2017-06-27T00:43:42.082Z,17.79
2017-06-27T00:43:46.502Z,17.79
2017-06-27T00:43:50.690Z,17.78
2017-06-27T00:43:55.108Z,17.77
2017-06-27T00:43:59.418Z,17.78
2017-06-27T00:44:03.962Z,17.78
2017-06-27T00:44:08.387Z,17.78
2017-06-27T00:44:12.690Z,17.77
2017-06-27T00:44:17.110Z,17.77
2017-06-27T00:44:21.532Z,17.78
2017-06-27T00:44:25.958Z,17.78
2017-06-27T00:44:30.382Z,17.77
2017-06-27T00:44:34.797Z,17.77
2017-06-27T00:44:39.103Z,17.77
2017-06-27T00:44:43.576Z,17.77
2017-06-27T00:44:48.003Z,17.77
2017-06-27T00:44:52.426Z,17.77
2017-06-27T00:44:56.851Z,17.77
2017-06-27T00:45:01.268Z,17.76
2017-06-27T00:45:05.610Z,17.77
2017-06-27T00:45:09.951Z,17.77
2017-06-27T00:45:14.374Z,17.76
2017-06-27T00:45:18.792Z,17.76
2017-06-27T00:45:23.217Z,17.76
2017-06-27T00:45:27.529Z,17.76
2017-06-27T00:45:31.955Z,17.76
2017-06-27T00:45:36.258Z,17.76
2017-06-27T00:45:40.215Z,17.76
2017-06-27T00:45:44.641Z,17.76
2017-06-27T00:45:49.070Z,17.76
2017-06-27T00:45:53.377Z,17.75
2017-06-27T00:45:57.685Z,17.76
2017-06-27T00:46:02.459Z,17.74
2017-06-27T00:46:06.878Z,17.74
2017-06-27T00:46:11.305Z,17.74
2017-06-27T00:46:15.729Z,17.74
2017-06-27T00:46:20.148Z,17.74
2017-06-27T00:46:24.569Z,17.73
2017-06-27T00:46:28.869Z,17.73
2017-06-27T00:46:33.180Z,17.73
2017-06-27T00:46:37.624Z,17.74
2017-06-27T00:46:42.046Z,17.74
2017-06-27T00:46:46.467Z,17.75
2017-06-27T00:46:50.772Z,17.74
2017-06-27T00:46:55.083Z,17.74
2017-06-27T00:46:59.534Z,17.73
2017-06-27T00:47:03.921Z,17.73
2017-06-27T00:47:08.341Z,17.73
2017-06-27T00:47:12.762Z,17.74
2017-06-27T00:47:17.197Z,17.74
2017-06-27T00:47:21.655Z,17.73
2017-06-27T00:47:25.962Z,17.72
2017-06-27T00:47:30.380Z,17.73
2017-06-27T00:47:34.803Z,17.73
2017-06-27T00:47:39.232Z,17.73
2017-06-27T00:47:43.542Z,17.72
2017-06-27T00:47:47.962Z,17.72
2017-06-27T00:47:52.384Z,17.72
2017-06-27T00:47:56.805Z,17.72
2017-06-27T00:48:01.232Z,17.72
2017-06-27T00:48:05.842Z,17.72
2017-06-27T00:48:10.146Z,17.72
2017-06-27T00:48:14.445Z,17.72
2017-06-27T00:48:18.869Z,17.72
2017-06-27T00:48:23.178Z,17.72
2017-06-27T00:48:27.483Z,17.72
2017-06-27T00:48:31.907Z,17.72
2017-06-27T00:48:36.333Z,17.71
2017-06-27T00:48:40.643Z,17.72
2017-06-27T00:48:45.070Z,17.71
2017-06-27T00:48:49.489Z,17.71
2017-06-27T00:48:53.910Z,17.71
2017-06-27T00:48:58.221Z,17.71
2017-06-27T00:49:02.900Z,17.71
2017-06-27T00:49:07.209Z,17.71
2017-06-27T00:49:11.635Z,17.71
2017-06-27T00:49:15.936Z,17.7
2017-06-27T00:49:20.359Z,17.71
2017-06-27T00:49:24.780Z,17.71
2017-06-27T00:49:29.209Z,17.71
2017-06-27T00:49:33.635Z,17.7
2017-06-27T00:49:38.059Z,17.71
2017-06-27T00:49:42.362Z,17.69
2017-06-27T00:49:46.663Z,17.7
2017-06-27T00:49:51.107Z,17.7
2017-06-27T00:49:55.415Z,17.71
2017-06-27T00:49:59.846Z,17.69
2017-06-27T00:50:04.035Z,17.7
2017-06-27T00:50:08.455Z,17.68
2017-06-27T00:50:12.765Z,17.69
2017-06-27T00:50:17.070Z,17.7
2017-06-27T00:50:21.370Z,17.68
2017-06-27T00:50:25.791Z,17.69
2017-06-27T00:50:30.108Z,17.69
2017-06-27T00:50:34.417Z,17.68
2017-06-27T00:50:38.835Z,17.69
2017-06-27T00:50:43.138Z,17.68
2017-06-27T00:50:47.440Z,17.67
2017-06-27T00:50:51.866Z,17.69
2017-06-27T00:50:56.311Z,17.68
2017-06-27T00:51:00.735Z,17.68
2017-06-27T00:51:05.310Z,17.68
2017-06-27T00:51:09.736Z,17.69
2017-06-27T00:51:14.159Z,17.68
2017-06-27T00:51:18.590Z,17.68
2017-06-27T00:51:23.010Z,17.69
2017-06-27T00:51:27.319Z,17.68
2017-06-27T00:51:31.628Z,17.68
2017-06-27T00:51:36.053Z,17.69
2017-06-27T00:51:40.250Z,17.67
2017-06-27T00:51:44.435Z,17.68
2017-06-27T00:51:48.851Z,17.68
2017-06-27T00:51:53.034Z,17.67
2017-06-27T00:51:57.341Z,17.67
2017-06-27T00:52:01.646Z,17.68
2017-06-27T00:52:06.067Z,17.68
2017-06-27T00:52:10.487Z,17.67
2017-06-27T00:52:14.910Z,17.68
2017-06-27T00:52:19.219Z,17.68
2017-06-27T00:52:23.529Z,17.68
2017-06-27T00:52:27.954Z,17.67
2017-06-27T00:52:32.266Z,17.67
2017-06-27T00:52:36.691Z,17.67
2017-06-27T00:52:41.003Z,17.67
2017-06-27T00:52:45.312Z,17.67
2017-06-27T00:52:49.742Z,17.67
2017-06-27T00:52:54.157Z,17.67
2017-06-27T00:52:58.462Z,17.67
2017-06-27T00:53:02.918Z,17.68
2017-06-27T00:53:07.123Z,17.67
2017-06-27T00:53:11.429Z,17.67
2017-06-27T00:53:15.849Z,17.67
2017-06-27T00:53:20.156Z,17.67
2017-06-27T00:53:24.587Z,17.67
2017-06-27T00:53:29.017Z,17.67
2017-06-27T00:53:33.434Z,17.68
2017-06-27T00:53:37.850Z,17.67
2017-06-27T00:53:42.032Z,17.67
2017-06-27T00:53:46.462Z,17.68
2017-06-27T00:53:50.922Z,17.67
2017-06-27T00:53:55.347Z,17.68
2017-06-27T00:53:59.766Z,17.68
2017-06-27T00:54:04.183Z,17.68
2017-06-27T00:54:08.614Z,17.69
2017-06-27T00:54:13.045Z,17.69
2017-06-27T00:54:17.463Z,17.69
2017-06-27T00:54:21.773Z,17.68
2017-06-27T00:54:26.195Z,17.68
2017-06-27T00:54:30.623Z,17.68
2017-06-27T00:54:35.043Z,17.69
2017-06-27T00:54:39.347Z,17.69
2017-06-27T00:54:43.652Z,17.7
2017-06-27T00:54:48.088Z,17.69
2017-06-27T00:54:52.395Z,17.69
2017-06-27T00:54:56.818Z,17.69
2017-06-27T00:55:01.121Z,17.7
2017-06-27T00:55:05.678Z,17.69
2017-06-27T00:55:10.101Z,17.7
2017-06-27T00:55:14.531Z,17.7
2017-06-27T00:55:18.952Z,17.7
2017-06-27T00:55:23.374Z,17.71
2017-06-27T00:55:27.682Z,17.7
2017-06-27T00:55:32.105Z,17.7
2017-06-27T00:55:36.426Z,17.71
2017-06-27T00:55:40.493Z,17.71
2017-06-27T00:55:44.918Z,17.71
2017-06-27T00:55:49.340Z,17.71
2017-06-27T00:55:53.649Z,17.72
2017-06-27T00:55:58.077Z,17.71
2017-06-27T00:56:02.500Z,17.71
2017-06-27T00:56:06.919Z,17.71
2017-06-27T00:56:11.340Z,17.71
2017-06-27T00:56:15.760Z,17.72
2017-06-27T00:56:20.182Z,17.72
2017-06-27T00:56:24.604Z,17.71
2017-06-27T00:56:29.029Z,17.72
2017-06-27T00:56:33.101Z,17.71